Beaconsfield, Canada
Current Conditions -  °F | °C
As of 10:00 AM on Thursday 23 Oct 2014 (Local Time) from CYUL Reporting Station
Overcast Overcast  
Wind Chill: 39°   Ceiling: 4000
Heat Index: 46°   Visibility: 15mi
Dew Point: 37°   Wind: 20mph
Humidity: 71%   Direction: 20°NNE
Pressure: 30.07"   Gusts: 26mph
Location:  45.43°N, 73.83°W
Report Text: CYUL 231400Z 02017G23KT 15SM SCT020 OVC040 08/03 A3007 RMK SC3SC5 SLP184
Loading
Personal Weather Stations






























Interactive Weather Map
Tropical Storm Tracking
New forecast layout! Learn more

10-Day Weather Forecast

Advertisements
Track Severe Weather on mobile